Time;durP1;ratioP1;P1;durP2;ratioP2;P2;SDS_P1;SDS_P2;PMS_P1;PMS_P2;Temp;Humidity;BMP_temperature;BMP_pressure;BME280_temperature;BME280_humidity;BME280_pressure;Samples;Min_cycle;Max_cycle;Signal;HPM_P1;HPM_P2
2022/12/06 00:01:17;;;;;;;6.75;3.28;;;-7.40;86.20;;;;;;5079379;28;20023;-78
2022/12/06 00:03:44;;;;;;;5.82;2.97;;;-7.30;85.90;;;;;;5057702;28;20134;-78
2022/12/06 00:06:16;;;;;;;7.28;3.75;;;-7.30;85.80;;;;;;5086039;28;20028;-79
2022/12/06 00:08:45;;;;;;;9.15;3.55;;;-7.30;85.90;;;;;;5059525;28;20055;-78
2022/12/06 00:11:17;;;;;;;8.68;4.15;;;-7.20;85.80;;;;;;5073853;28;20393;-79
2022/12/06 00:13:44;;;;;;;5.75;3.92;;;-7.20;85.30;;;;;;5074286;28;20048;-79
2022/12/06 00:16:13;;;;;;;7.13;3.47;;;-7.20;85.10;;;;;;5057777;28;20062;-78
2022/12/06 00:18:41;;;;;;;7.25;3.03;;;-7.10;85.10;;;;;;5089946;28;20082;-79
2022/12/06 00:21:08;;;;;;;;;;;-7.10;84.80;;;;;;5083473;28;20146;-78
2022/12/06 00:23:38;;;;;;;5.78;3.97;;;-7.10;84.80;;;;;;5073635;28;19904;-79
2022/12/06 00:26:05;;;;;;;7.43;3.22;;;-7.20;84.30;;;;;;5073044;28;20417;-78
2022/12/06 00:28:32;;;;;;;6.90;3.72;;;-7.20;84.40;;;;;;5056879;28;20477;-79
2022/12/06 00:31:04;;;;;;;7.18;3.67;;;-7.30;84.50;;;;;;5074048;28;20134;-80
2022/12/06 00:33:30;;;;;;;8.45;2.97;;;-7.30;84.50;;;;;;5074462;28;20024;-78
2022/12/06 00:35:58;;;;;;;5.25;3.40;;;-7.30;84.60;;;;;;5072756;28;20024;-79
2022/12/06 00:38:25;;;;;;;6.05;3.50;;;-7.30;84.80;;;;;;5072765;28;20735;-78
2022/12/06 00:40:58;;;;;;;6.18;3.65;;;-7.30;85.10;;;;;;5074866;28;21561;-79
2022/12/06 00:43:24;;;;;;;9.00;3.83;;;-7.30;85.20;;;;;;5072485;28;20025;-80
2022/12/06 00:45:50;;;;;;;7.28;4.20;;;-7.30;85.20;;;;;;5074162;28;20088;-79
2022/12/06 00:48:16;;;;;;;10.07;3.95;;;-7.30;85.10;;;;;;5073219;28;20516;-79
2022/12/06 00:50:42;;;;;;;7.28;4.70;;;-7.30;85.00;;;;;;5068962;28;20028;-78
2022/12/06 00:53:08;;;;;;;6.78;3.70;;;-7.30;84.90;;;;;;5073479;28;20020;-77
2022/12/06 00:55:34;;;;;;;4.38;3.15;;;-7.40;84.80;;;;;;5080391;28;20040;-78
2022/12/06 00:58:00;;;;;;;7.10;3.75;;;-7.40;84.70;;;;;;5076579;28;20339;-77
2022/12/06 01:00:26;;;;;;;5.30;3.38;;;-7.50;84.50;;;;;;5081682;28;20048;-78
2022/12/06 01:02:52;;;;;;;6.05;3.28;;;-7.60;84.60;;;;;;5080754;28;20051;-77
2022/12/06 01:05:18;;;;;;;6.95;3.13;;;-7.60;84.90;;;;;;5083094;28;20043;-79
2022/12/06 01:07:44;;;;;;;5.65;3.83;;;-7.60;85.00;;;;;;5081046;28;20016;-78
2022/12/06 01:10:10;;;;;;;6.18;3.20;;;-7.60;85.20;;;;;;5092468;28;20024;-78
2022/12/06 01:12:36;;;;;;;6.40;4.73;;;-7.60;85.50;;;;;;5092658;28;20031;-78
2022/12/06 01:15:02;;;;;;;9.55;4.03;;;-7.60;85.70;;;;;;5073785;28;20023;-76
2022/12/06 01:17:28;;;;;;;6.63;4.32;;;-7.60;85.80;;;;;;5073187;28;20041;-78
2022/12/06 01:19:54;;;;;;;7.15;4.43;;;-7.60;86.50;;;;;;5072922;28;20067;-78
2022/12/06 01:22:20;;;;;;;7.38;3.38;;;-7.50;86.00;;;;;;5073054;28;20016;-78
2022/12/06 01:24:46;;;;;;;5.80;3.50;;;-7.50;86.10;;;;;;5072927;28;20032;-77
2022/12/06 01:27:13;;;;;;;6.18;3.35;;;-7.50;86.10;;;;;;5078689;28;20377;-78
2022/12/06 01:29:38;;;;;;;6.97;4.03;;;-7.60;85.90;;;;;;5079616;28;20068;-77
2022/12/06 01:32:04;;;;;;;7.45;3.58;;;-7.60;86.10;;;;;;5069059;28;20052;-79
2022/12/06 01:34:30;;;;;;;7.30;5.18;;;-7.50;86.10;;;;;;5073044;28;20090;-77
2022/12/06 01:36:56;;;;;;;5.53;4.28;;;-7.50;86.10;;;;;;5077521;28;20103;-78
2022/12/06 01:39:22;;;;;;;8.38;4.68;;;-7.50;86.00;;;;;;5090875;28;20060;-79
2022/12/06 01:41:48;;;;;;;9.15;5.30;;;-7.50;85.90;;;;;;5078145;28;20381;-78
2022/12/06 01:44:39;;;;;;;8.35;3.95;;;-7.60;86.00;;;;;;5063647;28;20409;-79
2022/12/06 01:47:26;;;;;;;7.82;4.32;;;-7.60;86.10;;;;;;5062230;28;20051;-79
2022/12/06 01:50:13;;;;;;;8.77;4.20;;;-7.60;86.10;;;;;;5072689;28;20116;-79
2022/12/06 01:53:02;;;;;;;11.57;3.75;;;-7.60;86.20;;;;;;5088810;28;20067;-78
2022/12/06 01:55:33;;;;;;;9.32;3.70;;;-7.60;86.50;;;;;;5091137;28;20442;-77
2022/12/06 01:58:20;;;;;;;9.55;4.40;;;-7.70;86.10;;;;;;5077548;28;20025;-76
2022/12/06 02:00:46;;;;;;;7.45;3.92;;;-7.80;86.30;;;;;;5085257;28;20036;-76
2022/12/06 02:03:18;;;;;;;6.78;3.63;;;-7.80;86.40;;;;;;5086112;28;20083;-77
2022/12/06 02:05:44;;;;;;;8.05;4.15;;;-7.80;86.60;;;;;;5064732;28;20053;-77
2022/12/06 02:08:11;;;;;;;5.95;4.40;;;-7.80;86.60;;;;;;5081741;28;20428;-77
2022/12/06 02:10:38;;;;;;;6.10;4.75;;;-7.80;86.70;;;;;;5094405;28;20381;-76
2022/12/06 02:13:05;;;;;;;4.63;3.40;;;-7.80;86.80;;;;;;5080282;28;20064;-79
2022/12/06 02:15:36;;;;;;;;;;;-7.70;86.90;;;;;;5087369;28;20103;-77
2022/12/06 02:18:18;;;;;;;7.15;4.38;;;-7.70;86.80;;;;;;5076710;28;19904;-78
2022/12/06 02:20:51;;;;;;;7.13;3.80;;;-7.70;86.50;;;;;;5067520;28;20496;-77
2022/12/06 02:23:56;;;;;;;7.78;3.95;;;-7.70;86.50;;;;;;5061683;28;20023;-78
2022/12/06 02:26:25;;;;;;;9.82;4.53;;;-7.70;86.70;;;;;;5068210;28;20044;-77
2022/12/06 02:29:09;;;;;;;10.63;4.78;;;-7.60;86.80;;;;;;5077974;28;20033;-78
2022/12/06 02:32:01;;;;;;;6.75;2.92;;;-7.60;86.70;;;;;;5080439;28;20070;-79
2022/12/06 02:34:49;;;;;;;9.13;4.18;;;-7.60;86.40;;;;;;5078781;28;20021;-79
2022/12/06 02:37:41;;;;;;;6.60;4.07;;;-7.70;86.40;;;;;;5088396;28;20389;-77
2022/12/06 02:40:29;;;;;;;5.22;3.05;;;-7.80;86.40;;;;;;5085034;28;20044;-78
2022/12/06 02:43:12;;;;;;;11.48;4.63;;;-7.90;86.50;;;;;;5080020;28;20037;-79
2022/12/06 02:45:44;;;;;;;8.88;4.60;;;-7.90;86.70;;;;;;5082958;28;20031;-78
2022/12/06 02:48:13;;;;;;;10.32;4.00;;;-7.90;87.60;;;;;;5041986;28;20912;-77
2022/12/06 02:50:44;;;;;;;9.57;3.72;;;-7.80;87.00;;;;;;5052585;28;20061;-78
2022/12/06 02:53:14;;;;;;;8.10;4.15;;;-7.90;86.90;;;;;;5044781;28;20037;-78
2022/12/06 02:55:42;;;;;;;4.82;2.80;;;-8.00;86.90;;;;;;5043419;28;20021;-77
2022/12/06 02:58:09;;;;;;;4.65;2.97;;;-8.00;87.10;;;;;;5045397;28;20034;-78
2022/12/06 03:00:37;;;;;;;7.00;3.50;;;-8.10;87.30;;;;;;5047878;28;20064;-79
2022/12/06 03:03:41;;;;;;;9.68;3.70;;;-8.00;87.50;;;;;;5029083;28;20503;-79
2022/12/06 03:06:25;;;;;;;7.55;3.30;;;-8.00;87.60;;;;;;5001998;28;20438;-78
2022/12/06 03:09:09;;;;;;;9.65;3.83;;;-8.10;87.50;;;;;;5039651;28;20037;-78
2022/12/06 03:12:00;;;;;;;14.05;4.95;;;-8.10;87.60;;;;;;5051451;28;20172;-79
2022/12/06 03:14:32;;;;;;;6.70;4.30;;;-8.00;87.80;;;;;;5057485;28;20035;-78
2022/12/06 03:17:32;;;;;;;12.38;4.35;;;-8.00;87.90;;;;;;5045524;28;20052;-79
2022/12/06 03:20:09;;;;;;;7.38;4.60;;;-7.90;88.10;;;;;;5068356;28;20047;-77
2022/12/06 03:22:37;;;;;;;;;;;-7.80;87.80;;;;;;5063004;28;20367;-78
2022/12/06 03:25:05;;;;;;;6.07;3.83;;;-7.80;87.70;;;;;;5077699;28;19920;-78
2022/12/06 03:27:32;;;;;;;8.40;3.15;;;-7.80;87.50;;;;;;5059886;28;20077;-78
2022/12/06 03:30:03;;;;;;;7.55;4.15;;;-7.80;87.50;;;;;;5080697;28;20408;-77
2022/12/06 03:32:32;;;;;;;4.43;3.60;;;-7.80;87.30;;;;;;5075428;28;20035;-78
2022/12/06 03:35:04;;;;;;;8.55;4.32;;;-7.80;87.30;;;;;;5084890;28;20032;-77
2022/12/06 03:37:32;;;;;;;9.07;3.78;;;-7.70;87.60;;;;;;5059045;28;20016;-77
2022/12/06 03:40:06;;;;;;;8.52;4.22;;;-7.70;87.50;;;;;;5082077;28;20604;-77
2022/12/06 03:42:33;;;;;;;8.82;4.20;;;-7.70;87.10;;;;;;5086797;28;20429;-79
2022/12/06 03:44:59;;;;;;;5.00;3.80;;;-7.70;87.10;;;;;;5088920;28;20040;-78
2022/12/06 03:47:36;;;;;;;6.80;5.17;;;-7.70;87.00;;;;;;5088328;28;20024;-78
2022/12/06 03:50:05;;;;;;;;;;;-7.80;87.00;;;;;;5083244;28;20020;-78
2022/12/06 03:52:32;;;;;;;9.13;4.90;;;-7.80;86.90;;;;;;5080246;28;19904;-78
2022/12/06 03:54:58;;;;;;;8.85;4.40;;;-7.80;86.70;;;;;;5088442;28;20142;-78
2022/12/06 03:57:24;;;;;;;8.32;4.93;;;-7.80;86.90;;;;;;5082773;28;20461;-78
2022/12/06 03:59:50;;;;;;;8.52;4.47;;;-7.90;86.90;;;;;;5062928;28;20113;-77
2022/12/06 04:02:16;;;;;;;11.35;4.68;;;-7.90;87.10;;;;;;5085223;28;20064;-79
2022/12/06 04:04:42;;;;;;;7.75;3.80;;;-8.00;87.20;;;;;;5085996;28;20134;-78
2022/12/06 04:07:10;;;;;;;8.57;3.08;;;-8.00;87.90;;;;;;5086951;28;20551;-78
2022/12/06 04:09:54;;;;;;;8.75;3.95;;;-8.10;87.30;;;;;;5088406;28;20016;-78
2022/12/06 04:15:08;;;;;;;8.45;4.93;;;-8.20;87.60;;;;;;5074219;28;20485;-77
2022/12/06 04:20:25;;;;;;;11.75;5.00;;;-8.30;87.80;;;;;;5086413;28;20035;-77
2022/12/06 04:23:03;;;;;;;9.40;4.82;;;-8.30;88.00;;;;;;5084742;28;20051;-79
2022/12/06 04:25:34;;;;;;;9.25;5.22;;;-8.30;88.00;;;;;;5067771;28;20098;-78
2022/12/06 04:39:04;;;;;;;7.95;3.38;;;-8.40;88.30;;;;;;5086484;28;20108;-78
2022/12/06 04:44:14;;;;;;;10.75;4.78;;;-8.40;88.40;;;;;;5094945;28;20047;-79
2022/12/06 04:46:40;;;;;;;8.30;4.70;;;-8.50;88.40;;;;;;5092019;28;20118;-77
2022/12/06 04:49:06;;;;;;;5.07;4.00;;;-8.50;88.60;;;;;;5073169;28;20103;-75
2022/12/06 04:51:32;;;;;;;8.77;5.25;;;-8.60;88.70;;;;;;5081682;28;20450;-78
2022/12/06 04:53:58;;;;;;;9.15;3.92;;;-8.60;88.80;;;;;;5088994;28;20476;-77
2022/12/06 04:56:23;;;;;;;6.53;3.28;;;-8.60;89.00;;;;;;5083506;28;20051;-77
2022/12/06 04:58:50;;;;;;;4.78;3.38;;;-8.60;89.10;;;;;;5076511;28;20025;-77
2022/12/06 05:01:15;;;;;;;9.07;5.03;;;-8.60;89.10;;;;;;5079340;28;20032;-78
2022/12/06 05:03:41;;;;;;;8.57;4.25;;;-8.60;89.10;;;;;;5073811;28;20044;-78
2022/12/06 05:06:08;;;;;;;13.35;5.95;;;-8.60;89.20;;;;;;5075981;28;20025;-79
2022/12/06 05:08:34;;;;;;;9.90;5.18;;;-8.60;89.20;;;;;;5074428;28;20082;-79
2022/12/06 05:11:04;;;;;;;7.68;5.50;;;-8.60;89.10;;;;;;5053601;28;20032;-81
2022/12/06 05:13:30;;;;;;;12.75;5.35;;;-8.50;89.20;;;;;;5072661;28;20025;-78
2022/12/06 05:15:59;;;;;;;10.65;4.20;;;-8.50;89.20;;;;;;5073241;28;20023;-77
2022/12/06 05:18:26;;;;;;;9.77;4.38;;;-8.40;89.10;;;;;;5088873;28;20048;-79
2022/12/06 05:21:14;;;;;;;8.47;3.33;;;-8.50;88.50;;;;;;5060106;28;20024;-78
2022/12/06 05:23:48;;;;;;;7.70;4.30;;;-8.50;88.70;;;;;;5085302;28;20025;-80
2022/12/06 05:26:19;;;;;;;6.20;4.13;;;-8.60;88.70;;;;;;5091647;28;20040;-78
2022/12/06 05:28:46;;;;;;;7.90;4.90;;;-8.60;88.70;;;;;;5094678;28;20523;-79
2022/12/06 05:31:12;;;;;;;10.23;5.95;;;-8.60;89.00;;;;;;5092597;28;20111;-77
2022/12/06 05:33:38;;;;;;;11.30;4.85;;;-8.50;88.60;;;;;;5089936;28;20115;-79
2022/12/06 05:36:08;;;;;;;6.78;3.15;;;-8.50;88.70;;;;;;5093960;28;20111;-77
2022/12/06 05:38:34;;;;;;;6.88;3.20;;;-8.50;88.90;;;;;;5071890;28;20028;-77
2022/12/06 05:41:00;;;;;;;6.82;3.92;;;-8.50;88.80;;;;;;5087978;28;20025;-78
2022/12/06 05:43:28;;;;;;;10.90;4.30;;;-8.50;88.80;;;;;;5093474;28;20485;-78
2022/12/06 05:45:54;;;;;;;10.13;5.13;;;-8.50;88.80;;;;;;5075425;28;20056;-78
2022/12/06 05:48:21;;;;;;;9.82;3.83;;;-8.50;88.60;;;;;;5094542;28;20058;-77
2022/12/06 05:50:47;;;;;;;6.47;4.05;;;-8.50;88.60;;;;;;5094300;28;20039;-79
2022/12/06 05:53:14;;;;;;;6.72;4.28;;;-8.50;88.50;;;;;;5084102;28;20469;-77
2022/12/06 05:55:40;;;;;;;3.78;2.15;;;-8.50;88.50;;;;;;5092295;28;20039;-78
2022/12/06 05:58:07;;;;;;;6.60;3.27;;;-8.50;88.50;;;;;;5094559;28;20381;-78
2022/12/06 06:00:33;;;;;;;5.55;3.17;;;-8.50;88.40;;;;;;5075990;28;20788;-79
2022/12/06 06:02:59;;;;;;;10.93;5.47;;;-8.50;88.60;;;;;;5094177;28;20048;-77
2022/12/06 06:05:25;;;;;;;7.65;5.20;;;-8.50;88.50;;;;;;5093936;28;20036;-76
2022/12/06 06:07:50;;;;;;;7.93;3.80;;;-8.50;88.80;;;;;;5082269;28;20024;-77
2022/12/06 06:10:17;;;;;;;11.20;4.45;;;-8.40;88.60;;;;;;5094357;28;20373;-77
2022/12/06 06:12:43;;;;;;;8.02;3.78;;;-8.40;88.40;;;;;;5093798;28;20057;-78
2022/12/06 06:15:13;;;;;;;10.57;5.47;;;-8.40;88.30;;;;;;5092039;28;20016;-79
2022/12/06 06:17:40;;;;;;;11.50;5.05;;;-8.30;88.30;;;;;;5086195;28;20407;-78
2022/12/06 06:20:07;;;;;;;5.90;3.55;;;-8.20;88.40;;;;;;5090690;28;20020;-80
2022/12/06 06:22:35;;;;;;;8.70;4.40;;;-8.20;88.20;;;;;;5095991;28;20051;-77
2022/12/06 06:25:01;;;;;;;1.90;1.67;;;-8.20;87.60;;;;;;5089601;28;20123;-77
2022/12/06 06:27:27;;;;;;;7.63;4.77;;;-8.20;87.70;;;;;;5094998;28;20438;-79
2022/12/06 06:29:53;;;;;;;10.95;4.47;;;-8.10;88.00;;;;;;5095045;28;20340;-77
2022/12/06 06:32:19;;;;;;;7.70;3.30;;;-8.00;87.90;;;;;;5063898;28;20024;-77
2022/12/06 06:34:45;;;;;;;9.13;3.50;;;-7.90;87.40;;;;;;5075661;28;20115;-78
2022/12/06 06:37:11;;;;;;;7.57;3.65;;;-7.90;86.80;;;;;;5092983;28;20097;-77
2022/12/06 06:39:37;;;;;;;5.82;3.88;;;-7.90;86.50;;;;;;5094548;28;20024;-75
2022/12/06 06:42:03;;;;;;;5.28;2.97;;;-8.00;86.50;;;;;;5093423;28;20025;-77
2022/12/06 06:44:29;;;;;;;10.07;5.03;;;-8.00;86.80;;;;;;5093491;28;20028;-79
2022/12/06 06:46:55;;;;;;;5.90;3.15;;;-8.00;86.90;;;;;;5093911;28;20082;-78
2022/12/06 06:49:20;;;;;;;3.55;3.05;;;-7.90;86.90;;;;;;5093607;28;20020;-79
2022/12/06 06:51:46;;;;;;;3.83;3.25;;;-7.80;86.40;;;;;;5092900;28;20020;-79
2022/12/06 06:54:14;;;;;;;14.35;4.85;;;-7.80;86.70;;;;;;5073015;28;20059;-79
2022/12/06 06:56:39;;;;;;;;;;;-7.80;85.80;;;;;;5073192;28;20030;-80
2022/12/06 06:59:05;;;;;;;8.45;4.55;;;-7.90;86.20;;;;;;5093403;28;19904;-79
2022/12/06 07:01:31;;;;;;;5.57;3.55;;;-7.90;86.00;;;;;;5093595;28;20020;-79
2022/12/06 07:03:57;;;;;;;6.13;4.22;;;-7.80;86.40;;;;;;5093285;28;20040;-80
2022/12/06 07:06:23;;;;;;;9.00;3.95;;;-7.70;86.20;;;;;;5086177;28;20381;-80
2022/12/06 07:08:49;;;;;;;5.65;4.47;;;-7.70;85.80;;;;;;5092798;28;20016;-81
2022/12/06 07:11:15;;;;;;;9.02;4.78;;;-7.70;85.70;;;;;;5075428;28;20028;-81
2022/12/06 07:13:42;;;;;;;7.65;4.22;;;-7.70;85.90;;;;;;5093302;28;20050;-77
2022/12/06 07:16:12;;;;;;;;;;;-7.80;85.30;;;;;;5093871;28;20021;-80
2022/12/06 07:18:38;;;;;;;9.15;3.92;;;-7.70;85.50;;;;;;5093653;28;20402;-79
2022/12/06 07:21:06;;;;;;;10.23;4.30;;;-7.80;85.20;;;;;;5072779;28;20036;-78
2022/12/06 07:23:33;;;;;;;6.90;4.10;;;-7.80;85.80;;;;;;5094950;28;20354;-79
2022/12/06 07:26:02;;;;;;;9.00;4.60;;;-7.70;86.00;;;;;;5071516;28;20118;-81
2022/12/06 07:28:28;;;;;;;5.63;4.43;;;-7.50;86.00;;;;;;5077163;28;20560;-79
2022/12/06 07:30:53;;;;;;;8.82;4.15;;;-7.40;85.70;;;;;;5093189;28;20065;-80
2022/12/06 07:33:19;;;;;;;4.75;3.30;;;-7.40;84.60;;;;;;5092860;28;20063;-79
2022/12/06 07:35:51;;;;;;;5.13;3.72;;;-7.40;84.50;;;;;;5083577;28;20422;-80
2022/12/06 07:38:18;;;;;;;8.40;5.22;;;-7.40;84.40;;;;;;5088333;28;20020;-80
2022/12/06 07:40:44;;;;;;;6.38;4.95;;;-7.40;84.40;;;;;;5092895;28;20047;-78
2022/12/06 07:45:55;;;;;;;5.03;4.22;;;-7.30;85.30;;;;;;5092795;28;20821;-76
2022/12/06 07:48:20;;;;;;;7.17;3.77;;;-7.20;84.30;;;;;;5092606;28;20107;-78
2022/12/06 07:50:46;;;;;;;4.60;2.85;;;-7.20;83.80;;;;;;5089135;28;20062;-78
2022/12/06 07:53:12;;;;;;;8.23;6.55;;;-7.20;84.30;;;;;;5074153;28;20025;-79
2022/12/06 07:55:38;;;;;;;8.15;4.32;;;-7.10;84.10;;;;;;5092232;28;20055;-79
2022/12/06 07:58:07;;;;;;;9.90;5.50;;;-6.80;83.60;;;;;;5092365;28;20054;-80
2022/12/06 08:00:33;;;;;;;4.93;3.15;;;-6.40;84.10;;;;;;5074388;28;20107;-80
2022/12/06 08:02:59;;;;;;;7.63;4.53;;;-6.00;82.90;;;;;;5069009;28;20044;-79
2022/12/06 08:05:25;;;;;;;18.15;7.22;;;-5.70;81.10;;;;;;5073162;28;20059;-79
2022/12/06 08:07:51;;;;;;;11.75;5.40;;;-5.40;81.30;;;;;;5088877;28;20020;-78
2022/12/06 08:10:17;;;;;;;9.18;5.82;;;-5.00;79.60;;;;;;5091802;28;20502;-81
2022/12/06 08:12:42;;;;;;;8.13;4.82;;;-4.80;79.60;;;;;;5093865;28;20062;-78
2022/12/06 08:15:11;;;;;;;7.82;4.50;;;-4.30;79.60;;;;;;5075383;28;20084;-78
2022/12/06 08:17:39;;;;;;;13.23;6.10;;;-4.40;75.30;;;;;;5081724;28;20065;-79
2022/12/06 08:20:07;;;;;;;6.47;4.30;;;-4.60;76.10;;;;;;5090099;28;20140;-78
2022/12/06 08:22:33;;;;;;;8.88;5.53;;;-4.60;75.90;;;;;;5091971;28;20024;-78
2022/12/06 08:24:59;;;;;;;9.40;5.93;;;-4.80;74.90;;;;;;5091327;28;20412;-79
2022/12/06 08:27:25;;;;;;;9.38;5.90;;;-4.80;76.60;;;;;;5069744;28;20025;-81
2022/12/06 08:29:51;;;;;;;8.02;5.47;;;-4.70;76.70;;;;;;5086973;28;20435;-81
2022/12/06 08:32:18;;;;;;;8.32;4.45;;;-4.70;75.50;;;;;;5074045;28;20031;-81
2022/12/06 08:34:43;;;;;;;8.77;4.80;;;-4.90;74.80;;;;;;5073542;28;20028;-80
2022/12/06 08:37:10;;;;;;;10.50;5.70;;;-5.10;75.30;;;;;;5073362;28;20024;-81
2022/12/06 08:39:36;;;;;;;6.43;4.28;;;-5.20;75.30;;;;;;5072660;28;20396;-80
2022/12/06 08:42:05;;;;;;;6.65;6.00;;;-5.30;75.20;;;;;;5088188;28;20020;-81
2022/12/06 08:44:31;;;;;;;6.70;3.80;;;-5.30;75.30;;;;;;5081540;28;20385;-76
2022/12/06 08:46:59;;;;;;;12.23;5.72;;;-5.40;75.10;;;;;;5091303;28;20020;-77
2022/12/06 08:49:27;;;;;;;6.82;4.30;;;-5.40;75.50;;;;;;5087351;28;20098;-78
2022/12/06 08:51:53;;;;;;;9.05;5.53;;;-5.40;75.50;;;;;;5065735;28;20107;-81
2022/12/06 08:54:22;;;;;;;9.82;5.65;;;-5.30;75.60;;;;;;5085945;28;20025;-77
2022/12/06 08:56:48;;;;;;;4.65;4.03;;;-5.30;74.80;;;;;;5091536;28;20461;-79
2022/12/06 08:59:14;;;;;;;11.10;4.43;;;-5.20;75.00;;;;;;5091449;28;20023;-78
2022/12/06 09:01:40;;;;;;;9.25;4.65;;;-5.20;74.20;;;;;;5067802;28;20107;-78
2022/12/06 09:04:09;;;;;;;8.45;5.03;;;-5.00;74.20;;;;;;5106165;28;20039;-81
2022/12/06 09:06:42;;;;;;;7.88;5.65;;;-4.70;74.30;;;;;;5095543;28;20107;-81
2022/12/06 09:09:09;;;;;;;7.20;4.43;;;-4.30;73.90;;;;;;5095813;28;20020;-81
2022/12/06 09:11:35;;;;;;;5.43;3.88;;;-4.20;71.50;;;;;;5092669;28;20104;-79
2022/12/06 09:14:01;;;;;;;8.40;4.70;;;-4.30;71.50;;;;;;5066374;28;20108;-78
2022/12/06 09:16:27;;;;;;;8.23;4.38;;;-4.30;71.50;;;;;;5102822;28;20030;-81
2022/12/06 09:18:53;;;;;;;8.65;5.85;;;-4.30;70.40;;;;;;5070991;28;20021;-81
2022/12/06 09:21:21;;;;;;;9.13;5.82;;;-4.40;70.80;;;;;;5077446;28;20039;-80
2022/12/06 09:23:47;;;;;;;7.82;4.88;;;-4.30;71.40;;;;;;5089851;28;20078;-79
2022/12/06 09:26:13;;;;;;;11.40;3.70;;;-4.50;69.80;;;;;;5081087;28;20074;-78
2022/12/06 09:28:41;;;;;;;5.68;4.20;;;-4.60;71.00;;;;;;5097510;28;20044;-80
2022/12/06 09:31:08;;;;;;;5.03;4.00;;;-4.70;70.90;;;;;;5095237;28;20081;-79
2022/12/06 09:33:34;;;;;;;11.32;5.30;;;-4.90;71.40;;;;;;5073606;28;20031;-79
2022/12/06 09:36:05;;;;;;;6.57;4.27;;;-5.00;71.50;;;;;;5073787;28;20110;-78
2022/12/06 09:38:37;;;;;;;7.90;3.72;;;-5.10;72.10;;;;;;5095028;28;20249;-80
2022/12/06 09:41:21;;;;;;;10.77;3.75;;;-5.10;72.20;;;;;;5076646;28;20103;-79
2022/12/06 09:43:59;;;;;;;12.73;5.60;;;-5.10;71.90;;;;;;5091119;28;20020;-82
2022/12/06 09:46:39;;;;;;;8.77;5.88;;;-5.20;72.30;;;;;;5091782;28;20110;-81
2022/12/06 09:49:08;;;;;;;8.73;4.57;;;-5.20;72.30;;;;;;5092023;28;20025;-80
2022/12/06 09:51:49;;;;;;;10.02;5.43;;;-5.20;71.60;;;;;;5091859;28;20075;-78
2022/12/06 09:54:39;;;;;;;16.70;5.35;;;-5.30;71.70;;;;;;5088105;28;20048;-80
2022/12/06 09:57:27;;;;;;;11.30;5.20;;;-5.20;71.70;;;;;;5090253;28;20028;-80
2022/12/06 10:00:15;;;;;;;18.33;9.13;;;-4.90;70.20;;;;;;5085532;28;20145;-80
2022/12/06 10:03:13;;;;;;;6.55;4.95;;;-4.40;71.50;;;;;;5094120;28;20063;-80
2022/12/06 10:06:01;;;;;;;7.75;5.80;;;-3.60;71.80;;;;;;5092186;28;20036;-79
2022/12/06 10:08:39;;;;;;;7.57;3.80;;;-2.80;70.40;;;;;;5063288;28;20039;-80
2022/12/06 10:11:23;;;;;;;9.23;5.40;;;-2.20;66.60;;;;;;5086832;28;20032;-80
2022/12/06 10:14:14;;;;;;;16.17;6.68;;;-2.10;63.60;;;;;;5094003;28;20027;-81
2022/12/06 10:17:14;;;;;;;6.47;5.03;;;-2.10;63.40;;;;;;5093971;28;20077;-81
2022/12/06 10:20:01;;;;;;;10.02;4.70;;;-1.60;63.90;;;;;;5094066;28;20028;-80
2022/12/06 10:22:45;;;;;;;9.75;4.88;;;-1.90;61.90;;;;;;5082618;28;20020;-81
2022/12/06 10:25:30;;;;;;;6.88;4.95;;;-2.40;61.40;;;;;;5093953;28;20032;-82
2022/12/06 10:28:13;;;;;;;8.40;5.28;;;-3.00;61.70;;;;;;5067787;28;20024;-81
2022/12/06 10:31:11;;;;;;;8.27;5.20;;;-3.40;63.30;;;;;;5093814;28;20030;-80
2022/12/06 10:33:43;;;;;;;12.13;6.10;;;-3.60;63.50;;;;;;5075602;28;20032;-82
2022/12/06 10:36:14;;;;;;;9.50;6.38;;;-3.70;64.30;;;;;;5076195;28;20020;-82
2022/12/06 10:38:56;;;;;;;15.68;6.30;;;-3.90;64.60;;;;;;5093120;28;20059;-80
2022/12/06 10:41:44;;;;;;;18.77;10.20;;;-4.10;65.70;;;;;;5070985;28;20696;-80
2022/12/06 10:44:34;;;;;;;17.17;7.43;;;-4.20;66.40;;;;;;5092724;28;20484;-81
2022/12/06 10:47:29;;;;;;;15.93;6.93;;;-4.30;66.80;;;;;;5095154;28;20024;-80
2022/12/06 10:50:19;;;;;;;15.15;8.23;;;-4.30;67.30;;;;;;5083818;28;20036;-79
2022/12/06 10:52:54;;;;;;;15.00;6.55;;;-4.40;67.60;;;;;;5087252;28;20021;-81
2022/12/06 10:55:31;;;;;;;12.57;6.28;;;-4.50;67.60;;;;;;5094294;28;20120;-82
2022/12/06 10:58:06;;;;;;;10.10;5.47;;;-4.60;68.00;;;;;;5071760;28;20201;-80
2022/12/06 11:00:49;;;;;;;6.47;4.35;;;-4.60;68.00;;;;;;5093861;28;20031;-80
2022/12/06 11:03:33;;;;;;;15.40;8.55;;;-4.60;67.20;;;;;;5079254;28;20042;-79
2022/12/06 11:06:11;;;;;;;6.30;4.80;;;-4.70;67.30;;;;;;5072988;28;20128;-79
2022/12/06 11:08:45;;;;;;;9.18;6.10;;;-4.70;67.60;;;;;;5089283;28;20074;-82
2022/12/06 11:11:17;;;;;;;7.50;4.38;;;-4.70;67.90;;;;;;5075047;28;20024;-80
2022/12/06 11:13:48;;;;;;;10.65;5.68;;;-4.70;67.00;;;;;;5079622;28;20104;-82
2022/12/06 11:16:38;;;;;;;11.55;6.93;;;-4.80;67.70;;;;;;5093776;28;20409;-80
2022/12/06 11:19:33;;;;;;;10.85;6.75;;;-4.70;68.40;;;;;;5084166;28;20064;-81
2022/12/06 11:22:19;;;;;;;5.70;4.18;;;-4.70;68.00;;;;;;5093548;28;20028;-79
2022/12/06 11:25:21;;;;;;;7.38;4.10;;;-4.70;67.70;;;;;;5074972;28;20036;-79
2022/12/06 11:28:10;;;;;;;13.43;5.05;;;-4.60;67.20;;;;;;5070936;28;20021;-81
2022/12/06 11:30:37;;;;;;;7.05;4.82;;;-4.60;67.00;;;;;;5067889;28;20055;-81
2022/12/06 11:33:03;;;;;;;6.63;3.75;;;-4.60;67.20;;;;;;5093479;28;20031;-80
2022/12/06 11:35:31;;;;;;;5.25;3.72;;;-4.60;65.70;;;;;;5092872;28;20460;-81
2022/12/06 11:38:05;;;;;;;6.78;3.47;;;-4.60;65.60;;;;;;5093787;28;20431;-80
2022/12/06 11:40:35;;;;;;;6.95;4.55;;;-4.60;65.40;;;;;;5079967;28;20023;-81
2022/12/06 11:43:06;;;;;;;7.13;2.75;;;-4.60;65.20;;;;;;5082204;28;20385;-79
2022/12/06 11:45:34;;;;;;;8.88;3.13;;;-4.60;65.10;;;;;;5071506;28;20028;-80
2022/12/06 11:48:10;;;;;;;6.15;3.85;;;-4.60;65.30;;;;;;5092861;28;20016;-81
2022/12/06 11:50:36;;;;;;;6.57;4.00;;;-4.50;65.30;;;;;;5074243;28;20020;-80
2022/12/06 11:53:29;;;;;;;6.50;4.15;;;-4.50;65.50;;;;;;5073798;28;20039;-81
2022/12/06 11:55:59;;;;;;;7.80;3.65;;;-4.50;65.00;;;;;;5089971;28;20024;-81
2022/12/06 11:58:34;;;;;;;6.18;4.15;;;-4.40;65.20;;;;;;5065236;28;20486;-80
2022/12/06 12:01:09;;;;;;;6.38;3.90;;;-4.40;65.10;;;;;;5095270;28;20602;-80
2022/12/06 12:03:41;;;;;;;7.95;4.97;;;-4.40;65.40;;;;;;5060205;28;20412;-81
2022/12/06 12:06:27;;;;;;;7.78;3.10;;;-4.40;65.70;;;;;;5092366;28;20082;-80
2022/12/06 12:09:05;;;;;;;10.70;2.92;;;-4.40;64.70;;;;;;5088477;28;20059;-82
2022/12/06 12:11:33;;;;;;;7.28;4.55;;;-4.40;64.40;;;;;;5092889;28;20036;-80
2022/12/06 12:14:06;;;;;;;6.68;3.83;;;-4.40;65.10;;;;;;5093608;28;20032;-81
2022/12/06 12:16:34;;;;;;;4.35;3.28;;;-4.40;65.00;;;;;;5077836;28;20024;-81
2022/12/06 12:19:23;;;;;;;10.55;3.80;;;-4.30;65.20;;;;;;5089974;28;20025;-81
2022/12/06 12:21:49;;;;;;;5.85;3.05;;;-4.30;65.70;;;;;;5074303;28;20043;-81
2022/12/06 12:24:57;;;;;;;11.10;6.90;;;-4.30;64.50;;;;;;5091977;28;20039;-78
2022/12/06 12:27:40;;;;;;;12.18;5.43;;;-4.30;65.60;;;;;;5078598;28;20028;-79
2022/12/06 12:30:19;;;;;;;8.27;4.35;;;-4.30;65.70;;;;;;5093195;28;20024;-80
2022/12/06 12:32:46;;;;;;;3.22;2.45;;;-4.30;65.80;;;;;;5089836;28;20103;-79
2022/12/06 12:35:21;;;;;;;8.50;4.28;;;-4.30;65.60;;;;;;5089863;28;20580;-80
2022/12/06 12:37:54;;;;;;;10.93;5.63;;;-4.30;66.10;;;;;;5070623;28;20050;-80
2022/12/06 12:40:32;;;;;;;7.50;3.97;;;-4.30;66.50;;;;;;5090599;28;20103;-81
2022/12/06 12:43:10;;;;;;;11.27;2.75;;;-4.30;67.00;;;;;;5090632;28;20430;-79
2022/12/06 12:45:40;;;;;;;5.75;3.60;;;-4.30;66.60;;;;;;5090389;28;20036;-81
2022/12/06 12:48:23;;;;;;;3.85;3.20;;;-4.30;66.90;;;;;;5092786;28;20107;-82
2022/12/06 12:50:58;;;;;;;6.18;4.07;;;-4.30;67.40;;;;;;5070284;28;20028;-80
2022/12/06 12:53:35;;;;;;;9.40;5.25;;;-4.40;67.80;;;;;;5070779;28;20059;-82
2022/12/06 12:56:20;;;;;;;8.20;4.07;;;-4.40;68.20;;;;;;5090779;28;21338;-82
2022/12/06 12:58:50;;;;;;;12.45;4.63;;;-4.40;68.50;;;;;;5060875;28;20033;-80
2022/12/06 13:01:43;;;;;;;4.88;2.55;;;-4.40;68.80;;;;;;5061823;28;20066;-79
2022/12/06 13:04:31;;;;;;;9.13;3.83;;;-4.40;69.00;;;;;;5066228;28;20071;-80
2022/12/06 13:07:00;;;;;;;12.57;3.10;;;-4.40;69.30;;;;;;5062265;28;20033;-81
2022/12/06 13:09:44;;;;;;;3.58;2.53;;;-4.40;69.40;;;;;;5071338;28;20071;-78
2022/12/06 13:12:43;;;;;;;5.03;2.33;;;-4.40;69.60;;;;;;5057957;28;20028;-81
2022/12/06 13:15:19;;;;;;;5.68;2.80;;;-4.30;69.60;;;;;;5066928;28;20064;-80
2022/12/06 13:17:51;;;;;;;7.72;4.10;;;-4.30;69.80;;;;;;5071252;28;20104;-78
2022/12/06 13:20:43;;;;;;;8.30;3.55;;;-4.30;70.10;;;;;;5071903;28;20114;-78
2022/12/06 13:23:18;;;;;;;13.07;3.35;;;-4.40;70.70;;;;;;5071959;28;20363;-79
2022/12/06 13:25:51;;;;;;;3.95;2.47;;;-4.40;70.70;;;;;;5071557;28;20032;-80
2022/12/06 13:28:24;;;;;;;4.43;2.55;;;-4.40;70.90;;;;;;5058793;28;20029;-79
2022/12/06 13:30:57;;;;;;;5.93;2.88;;;-4.30;70.70;;;;;;5078062;28;20062;-78
2022/12/06 13:33:26;;;;;;;5.93;3.35;;;-4.30;71.00;;;;;;5067693;28;20025;-76